createdAt,value
2023-03-24T00:01:58.064Z,9.73
2023-03-24T00:04:25.151Z,9.70
2023-03-24T00:06:52.351Z,9.76
2023-03-24T00:09:19.034Z,9.91
2023-03-24T00:11:45.603Z,9.97
2023-03-24T00:14:12.414Z,9.94
2023-03-24T00:16:42.449Z,9.88
2023-03-24T00:19:10.605Z,9.82
2023-03-24T00:21:37.534Z,9.86
2023-03-24T00:24:04.990Z,9.83
2023-03-24T00:26:32.445Z,9.74
2023-03-24T00:28:59.033Z,9.57
2023-03-24T00:31:26.101Z,9.58
2023-03-24T00:33:53.861Z,9.44
2023-03-24T00:36:23.069Z,9.56
2023-03-24T00:38:50.220Z,9.65
2023-03-24T00:41:20.338Z,9.74
2023-03-24T00:43:48.230Z,9.68
2023-03-24T00:46:27.334Z,9.49
2023-03-24T00:49:02.659Z,9.54
2023-03-24T00:51:30.918Z,9.60
2023-03-24T00:53:57.898Z,9.55
2023-03-24T00:56:26.670Z,9.57
2023-03-24T00:58:54.306Z,9.59
2023-03-24T01:01:22.209Z,9.30
2023-03-24T01:03:50.799Z,9.13
2023-03-24T01:06:18.634Z,9.19
2023-03-24T01:08:45.812Z,9.27
2023-03-24T01:11:13.049Z,9.19
2023-03-24T01:13:41.012Z,9.21
2023-03-24T01:16:07.878Z,9.40
2023-03-24T01:18:35.009Z,9.25
2023-03-24T01:21:01.639Z,9.28
2023-03-24T01:23:30.665Z,9.25
2023-03-24T01:25:57.267Z,9.18
2023-03-24T01:28:25.261Z,9.25
2023-03-24T01:30:52.885Z,9.16
2023-03-24T01:33:19.619Z,9.17
2023-03-24T01:35:46.263Z,9.14
2023-03-24T01:38:13.757Z,9.02
2023-03-24T01:40:42.189Z,9.13
2023-03-24T01:43:17.127Z,9.16
2023-03-24T01:46:06.233Z,9.05
2023-03-24T01:48:43.356Z,8.82
2023-03-24T01:51:12.701Z,8.94
2023-03-24T01:53:42.748Z,8.95
2023-03-24T01:56:10.245Z,8.92
2023-03-24T01:58:43.764Z,9.16
2023-03-24T02:01:18.191Z,9.10
2023-03-24T02:04:11.256Z,8.89
2023-03-24T02:06:41.357Z,8.73
2023-03-24T02:09:08.539Z,8.84
2023-03-24T02:11:36.061Z,8.71
2023-03-24T02:14:05.664Z,8.73
2023-03-24T02:16:51.028Z,8.80
2023-03-24T02:19:38.426Z,8.72
2023-03-24T02:22:06.131Z,8.70
2023-03-24T02:24:35.793Z,8.60
2023-03-24T02:27:11.626Z,8.72
2023-03-24T02:30:02.074Z,8.71
2023-03-24T02:32:29.339Z,8.77
2023-03-24T02:35:09.169Z,8.68
2023-03-24T02:37:35.733Z,8.64
2023-03-24T02:40:29.102Z,8.67
2023-03-24T02:43:14.640Z,8.64
2023-03-24T02:45:49.917Z,8.48
2023-03-24T02:48:37.654Z,8.53
2023-03-24T02:51:22.346Z,8.43
2023-03-24T02:53:48.879Z,8.44
2023-03-24T02:56:42.810Z,8.36
2023-03-24T02:59:32.253Z,8.43
2023-03-24T03:02:07.207Z,8.39
2023-03-24T03:04:46.131Z,8.37
2023-03-24T03:07:16.786Z,8.45
2023-03-24T03:09:50.928Z,8.51
2023-03-24T03:12:19.512Z,8.99
2023-03-24T03:14:48.469Z,8.77
2023-03-24T03:17:30.789Z,8.79
2023-03-24T03:20:05.056Z,8.52
2023-03-24T03:22:34.301Z,8.46
2023-03-24T03:25:02.524Z,8.59
2023-03-24T03:27:31.314Z,8.58
2023-03-24T03:30:04.670Z,8.62
2023-03-24T03:32:34.137Z,8.49
2023-03-24T03:35:06.859Z,8.57
2023-03-24T03:37:36.593Z,8.63
2023-03-24T03:40:09.779Z,8.61
2023-03-24T03:42:39.472Z,8.59
2023-03-24T03:45:08.347Z,8.78
2023-03-24T03:47:35.702Z,8.84
2023-03-24T03:50:02.809Z,8.65
2023-03-24T03:52:31.003Z,8.64
2023-03-24T03:54:58.533Z,8.71
2023-03-24T03:57:25.483Z,8.65
2023-03-24T04:00:15.630Z,8.67
2023-03-24T04:03:02.044Z,8.64
2023-03-24T04:05:35.117Z,8.79
2023-03-24T04:08:12.655Z,8.76
2023-03-24T04:11:14.164Z,8.85
2023-03-24T04:14:06.840Z,8.92
2023-03-24T04:17:16.221Z,8.80
2023-03-24T04:19:55.842Z,8.85
2023-03-24T04:22:39.947Z,8.71
2023-03-24T04:25:20.543Z,8.73
2023-03-24T04:27:49.879Z,8.91
2023-03-24T04:30:30.441Z,8.90
2023-03-24T04:33:04.149Z,8.82
2023-03-24T04:35:36.547Z,9.00
2023-03-24T04:38:23.154Z,8.77
2023-03-24T04:40:58.055Z,8.70
2023-03-24T04:43:28.047Z,8.97
2023-03-24T04:45:57.995Z,9.03
2023-03-24T04:48:36.532Z,9.06
2023-03-24T04:51:09.244Z,9.23
2023-03-24T04:54:14.189Z,9.03
2023-03-24T04:56:51.913Z,9.04
2023-03-24T04:59:23.776Z,8.90
2023-03-24T05:01:50.725Z,8.82
2023-03-24T05:04:43.093Z,8.66
2023-03-24T05:07:19.307Z,8.70
2023-03-24T05:09:48.804Z,8.88
2023-03-24T05:12:15.352Z,8.81
2023-03-24T05:15:16.966Z,8.78
2023-03-24T05:17:45.984Z,8.72
2023-03-24T05:20:12.803Z,8.81
2023-03-24T05:22:42.598Z,8.98
2023-03-24T05:25:09.513Z,8.96
2023-03-24T05:27:36.265Z,9.08
2023-03-24T05:30:15.129Z,9.09
2023-03-24T05:32:43.453Z,9.07
2023-03-24T05:35:11.931Z,9.17
2023-03-24T05:37:38.920Z,9.29
2023-03-24T05:40:07.045Z,9.31
2023-03-24T05:42:45.267Z,9.44
2023-03-24T05:45:13.848Z,9.24
2023-03-24T05:47:40.985Z,9.32
2023-03-24T05:50:08.915Z,9.30
2023-03-24T05:52:36.361Z,9.44
2023-03-24T05:55:32.039Z,9.72
2023-03-24T05:58:07.527Z,9.91
2023-03-24T06:00:48.156Z,10.23
2023-03-24T06:03:23.468Z,10.34
2023-03-24T06:06:00.361Z,10.61
2023-03-24T06:08:28.601Z,10.88
2023-03-24T06:11:00.419Z,10.92
2023-03-24T06:13:27.064Z,10.91
2023-03-24T06:15:54.648Z,11.04
2023-03-24T06:18:35.275Z,11.30
2023-03-24T06:21:11.429Z,11.57
2023-03-24T06:23:40.062Z,11.01
2023-03-24T06:26:11.494Z,10.94
2023-03-24T06:28:51.846Z,10.98
2023-03-24T06:31:21.330Z,10.85
2023-03-24T06:33:53.301Z,10.97
2023-03-24T06:36:19.888Z,11.25
2023-03-24T06:38:46.884Z,11.42
2023-03-24T06:41:17.674Z,11.61
2023-03-24T06:43:44.538Z,11.60
2023-03-24T06:46:11.408Z,11.55
2023-03-24T06:48:40.979Z,11.89
2023-03-24T06:51:08.405Z,11.93
2023-03-24T06:53:34.961Z,11.97
2023-03-24T06:56:01.853Z,12.08
2023-03-24T06:58:35.282Z,12.38
2023-03-24T07:01:07.226Z,12.24
2023-03-24T07:03:42.961Z,12.44
2023-03-24T07:06:29.857Z,12.47
2023-03-24T07:09:02.749Z,12.33
2023-03-24T07:11:31.643Z,12.18
2023-03-24T07:13:59.815Z,12.28
2023-03-24T07:16:28.113Z,12.55
2023-03-24T07:19:12.981Z,12.75
2023-03-24T07:21:41.462Z,13.39
2023-03-24T07:24:08.145Z,13.68
2023-03-24T07:26:45.581Z,13.82
2023-03-24T07:29:21.644Z,13.94
2023-03-24T07:32:01.931Z,13.90
2023-03-24T07:34:28.800Z,13.86
2023-03-24T07:36:55.551Z,13.98
2023-03-24T07:39:22.109Z,14.40
2023-03-24T07:41:48.575Z,14.38
2023-03-24T07:44:25.732Z,14.15
2023-03-24T07:46:53.458Z,14.20
2023-03-24T07:49:20.893Z,14.46
2023-03-24T07:52:06.654Z,14.82
2023-03-24T07:54:38.540Z,14.84
2023-03-24T07:57:05.082Z,15.06
2023-03-24T07:59:31.809Z,15.39
2023-03-24T08:02:05.772Z,14.79
2023-03-24T08:04:44.829Z,15.14
2023-03-24T08:07:34.970Z,15.10
2023-03-24T08:10:01.480Z,14.82
2023-03-24T08:12:27.911Z,14.54
2023-03-24T08:14:55.264Z,15.29
2023-03-24T08:17:21.937Z,15.57
2023-03-24T08:19:58.882Z,15.97
2023-03-24T08:22:27.245Z,16.00
2023-03-24T08:24:53.720Z,16.29
2023-03-24T08:27:20.482Z,16.04
2023-03-24T08:29:46.962Z,16.03
2023-03-24T08:32:13.782Z,16.92
2023-03-24T08:34:40.305Z,16.98
2023-03-24T08:37:07.149Z,17.48
2023-03-24T08:39:35.834Z,17.52
2023-03-24T08:42:02.464Z,17.75
2023-03-24T08:44:30.571Z,17.87
2023-03-24T08:47:00.278Z,18.15
2023-03-24T08:49:26.721Z,18.32
2023-03-24T08:51:53.199Z,18.64
2023-03-24T08:54:21.747Z,18.86
2023-03-24T08:56:48.253Z,18.84
2023-03-24T08:59:14.980Z,19.11
2023-03-24T09:01:41.932Z,19.78
2023-03-24T09:04:08.452Z,19.42
2023-03-24T09:06:35.067Z,19.96
2023-03-24T09:09:01.609Z,20.52
2023-03-24T09:11:28.118Z,20.21
2023-03-24T09:13:54.608Z,21.63
2023-03-24T09:16:21.815Z,21.30
2023-03-24T09:18:48.332Z,21.48
2023-03-24T09:21:14.795Z,22.12
2023-03-24T09:23:41.349Z,22.79
2023-03-24T09:26:08.111Z,22.14
2023-03-24T09:28:34.742Z,22.01
2023-03-24T09:31:06.073Z,22.20
2023-03-24T09:33:34.715Z,22.32
2023-03-24T09:36:02.615Z,22.31
2023-03-24T09:41:00.720Z,21.31
2023-03-24T09:43:46.129Z,20.67
2023-03-24T09:46:15.666Z,20.93
2023-03-24T09:48:58.064Z,21.10
2023-03-24T09:51:25.966Z,20.81
2023-03-24T09:53:52.432Z,20.22
2023-03-24T09:56:20.813Z,19.90
2023-03-24T09:58:49.898Z,20.40
2023-03-24T10:01:17.184Z,20.92
2023-03-24T10:03:44.531Z,21.51
2023-03-24T10:06:15.390Z,21.58
2023-03-24T10:08:43.107Z,21.78
2023-03-24T10:11:27.268Z,21.93
2023-03-24T10:14:17.095Z,22.10
2023-03-24T10:17:02.224Z,22.10
2023-03-24T10:19:48.536Z,21.70
2023-03-24T10:22:21.820Z,21.44
2023-03-24T10:24:51.315Z,21.30
2023-03-24T10:27:44.191Z,22.46
2023-03-24T10:30:16.783Z,22.62
2023-03-24T10:32:44.159Z,23.22
2023-03-24T10:35:23.227Z,23.58
2023-03-24T10:37:50.516Z,23.41
2023-03-24T10:40:22.616Z,22.94
2023-03-24T10:42:49.840Z,22.81
2023-03-24T10:45:34.972Z,22.76
2023-03-24T10:48:02.280Z,23.31
2023-03-24T10:50:30.326Z,23.80
2023-03-24T10:52:57.626Z,23.78
2023-03-24T10:55:31.284Z,24.12
2023-03-24T10:57:59.111Z,23.90
2023-03-24T11:00:31.498Z,22.94
2023-03-24T11:03:01.058Z,23.27
2023-03-24T11:05:30.655Z,23.39
2023-03-24T11:08:00.649Z,23.84
2023-03-24T11:10:27.437Z,23.06
2023-03-24T11:12:53.895Z,23.40
2023-03-24T11:15:26.202Z,22.58
2023-03-24T11:18:11.145Z,22.64
2023-03-24T11:20:46.192Z,22.34
2023-03-24T11:23:16.908Z,22.22
2023-03-24T11:25:46.185Z,21.36
2023-03-24T11:28:16.927Z,21.81
2023-03-24T11:30:46.715Z,21.64
2023-03-24T11:33:19.083Z,21.83
2023-03-24T11:35:50.299Z,22.23
2023-03-24T11:38:29.856Z,22.63
2023-03-24T11:41:01.210Z,22.26
2023-03-24T11:43:28.170Z,22.31
2023-03-24T11:46:05.940Z,21.72
2023-03-24T11:48:35.264Z,21.93
2023-03-24T11:51:03.126Z,21.90
2023-03-24T11:53:33.920Z,21.83
2023-03-24T11:56:00.805Z,21.86
2023-03-24T11:58:28.063Z,22.18
2023-03-24T12:01:05.099Z,22.05
2023-03-24T12:03:58.371Z,22.14
2023-03-24T12:06:24.974Z,21.88
2023-03-24T12:09:09.821Z,22.06
2023-03-24T12:11:39.347Z,21.89
2023-03-24T12:14:06.039Z,22.30
2023-03-24T12:16:39.954Z,22.21
2023-03-24T12:19:19.183Z,22.05
2023-03-24T12:21:45.824Z,21.70
2023-03-24T12:24:21.440Z,22.11
2023-03-24T12:26:51.718Z,22.01
2023-03-24T12:29:18.181Z,21.73
2023-03-24T12:31:53.901Z,21.77
2023-03-24T12:34:20.682Z,21.75
2023-03-24T12:36:52.890Z,22.07
2023-03-24T12:39:32.065Z,22.01
2023-03-24T12:42:14.199Z,21.81
2023-03-24T12:44:40.812Z,21.76
2023-03-24T12:47:22.697Z,21.66
2023-03-24T12:50:07.973Z,21.90
2023-03-24T12:52:43.891Z,21.76
2023-03-24T12:55:14.704Z,21.76
2023-03-24T12:57:42.839Z,21.70
2023-03-24T13:00:16.143Z,21.63
2023-03-24T13:02:45.896Z,21.85
2023-03-24T13:05:18.494Z,21.75
2023-03-24T13:07:47.536Z,21.70
2023-03-24T13:10:18.123Z,21.80
2023-03-24T13:12:44.584Z,22.04
2023-03-24T13:15:14.452Z,22.06
2023-03-24T13:17:59.618Z,22.01
2023-03-24T13:20:28.315Z,22.34
2023-03-24T13:22:55.567Z,22.22
2023-03-24T13:25:45.132Z,21.94
2023-03-24T13:28:16.637Z,21.97
2023-03-24T13:30:44.436Z,21.99
2023-03-24T13:33:20.196Z,22.09
2023-03-24T13:36:09.196Z,21.90
2023-03-24T13:38:37.791Z,22.14
2023-03-24T13:41:05.499Z,22.55
2023-03-24T13:43:33.599Z,22.65
2023-03-24T13:46:01.422Z,22.61
2023-03-24T13:48:37.624Z,22.42
2023-03-24T13:51:08.860Z,22.55
2023-03-24T13:53:38.114Z,22.86
2023-03-24T13:56:06.117Z,23.12
2023-03-24T13:59:04.636Z,23.31
2023-03-24T14:01:33.300Z,22.89
2023-03-24T14:04:18.706Z,23.04
2023-03-24T14:06:49.825Z,23.13
2023-03-24T14:09:21.176Z,23.19
2023-03-24T14:12:08.659Z,23.25
2023-03-24T14:14:56.980Z,22.92
2023-03-24T14:17:23.575Z,22.60
2023-03-24T14:19:59.144Z,22.80
2023-03-24T14:22:30.651Z,22.65
2023-03-24T14:24:59.417Z,22.42
2023-03-24T14:27:34.986Z,22.34
2023-03-24T14:30:03.941Z,22.46
2023-03-24T14:32:30.461Z,22.46
2023-03-24T14:34:58.199Z,22.33
2023-03-24T14:37:25.762Z,22.32
2023-03-24T14:39:52.781Z,22.21
2023-03-24T14:42:45.741Z,22.19
2023-03-24T14:45:33.536Z,22.61
2023-03-24T14:48:01.457Z,22.70
2023-03-24T14:50:28.814Z,22.52
2023-03-24T14:52:58.689Z,22.40
2023-03-24T14:55:26.401Z,22.29
2023-03-24T14:57:54.372Z,22.32
2023-03-24T15:00:22.888Z,22.21
2023-03-24T15:02:53.386Z,21.99
2023-03-24T15:05:23.143Z,21.93
2023-03-24T15:08:08.543Z,21.82
2023-03-24T15:10:40.932Z,21.89
2023-03-24T15:13:23.669Z,22.10
2023-03-24T15:15:50.508Z,22.53
2023-03-24T15:18:18.129Z,23.09
2023-03-24T15:20:48.587Z,23.40
2023-03-24T15:23:19.996Z,23.76
2023-03-24T15:25:49.414Z,23.62
2023-03-24T15:28:26.708Z,23.89
2023-03-24T15:30:53.900Z,23.66
2023-03-24T15:33:21.752Z,23.32
2023-03-24T15:35:54.276Z,23.55
2023-03-24T15:38:27.345Z,23.09
2023-03-24T15:40:57.856Z,22.98
2023-03-24T15:43:24.563Z,22.87
2023-03-24T15:46:08.728Z,22.92
2023-03-24T15:48:38.704Z,22.34
2023-03-24T15:51:09.745Z,22.10
2023-03-24T15:53:44.934Z,22.04
2023-03-24T15:56:14.487Z,21.98
2023-03-24T15:58:48.852Z,22.33
2023-03-24T16:01:17.499Z,22.20
2023-03-24T16:03:44.910Z,21.63
2023-03-24T16:06:15.947Z,21.75
2023-03-24T16:08:43.285Z,21.91
2023-03-24T16:11:11.886Z,22.07
2023-03-24T16:13:39.347Z,21.89
2023-03-24T16:16:15.058Z,21.93
2023-03-24T16:18:43.423Z,21.73
2023-03-24T16:21:13.042Z,21.70
2023-03-24T16:23:39.953Z,21.67
2023-03-24T16:26:09.313Z,21.43
2023-03-24T16:28:36.238Z,21.47
2023-03-24T16:31:04.589Z,21.39
2023-03-24T16:33:31.389Z,21.13
2023-03-24T16:35:58.238Z,21.00
2023-03-24T16:38:25.438Z,20.71
2023-03-24T16:40:53.518Z,20.59
2023-03-24T16:43:20.389Z,20.54
2023-03-24T16:45:47.711Z,20.44
2023-03-24T16:48:14.144Z,20.45
2023-03-24T16:50:42.281Z,20.46
2023-03-24T16:53:09.146Z,20.40
2023-03-24T16:55:36.449Z,20.30
2023-03-24T16:58:03.366Z,20.27
2023-03-24T17:00:30.064Z,20.21
2023-03-24T17:02:59.791Z,20.17
2023-03-24T17:05:28.422Z,20.21
2023-03-24T17:07:58.247Z,20.11
2023-03-24T17:10:25.586Z,20.10
2023-03-24T17:12:53.975Z,19.88
2023-03-24T17:15:22.280Z,19.69
2023-03-24T17:17:48.756Z,19.59
2023-03-24T17:20:15.869Z,19.32
2023-03-24T17:22:43.849Z,19.22
2023-03-24T17:25:11.603Z,19.02
2023-03-24T17:27:38.638Z,18.79
2023-03-24T17:30:06.632Z,18.87
2023-03-24T17:32:33.612Z,18.71
2023-03-24T17:35:01.366Z,18.28
2023-03-24T17:37:28.742Z,18.29
2023-03-24T17:39:58.202Z,18.22
2023-03-24T17:42:26.391Z,18.33
2023-03-24T17:44:52.937Z,18.16
2023-03-24T17:47:19.385Z,18.22
2023-03-24T17:49:45.927Z,18.20
2023-03-24T17:52:12.408Z,18.18
2023-03-24T17:54:38.912Z,18.16
2023-03-24T17:57:05.507Z,18.01
2023-03-24T17:59:32.747Z,18.01
2023-03-24T18:01:59.265Z,18.01
2023-03-24T18:04:25.854Z,18.08
2023-03-24T18:06:52.418Z,18.23
2023-03-24T18:09:18.932Z,18.05
2023-03-24T18:11:47.718Z,17.94
2023-03-24T18:14:14.327Z,17.85
2023-03-24T18:16:40.953Z,17.73
2023-03-24T18:19:07.563Z,17.77
2023-03-24T18:21:34.117Z,17.85
2023-03-24T18:24:00.744Z,17.98
2023-03-24T18:26:27.925Z,17.84
2023-03-24T18:28:54.452Z,17.89
2023-03-24T18:31:21.709Z,17.84
2023-03-24T18:33:48.794Z,17.80
2023-03-24T18:36:16.571Z,17.80
2023-03-24T18:38:43.561Z,17.76
2023-03-24T18:41:12.732Z,17.75
2023-03-24T18:43:41.194Z,17.77
2023-03-24T18:46:09.717Z,17.77
2023-03-24T18:48:43.758Z,17.76
2023-03-24T18:51:11.130Z,17.73
2023-03-24T18:53:37.723Z,17.67
2023-03-24T18:56:06.005Z,17.67
2023-03-24T18:58:33.772Z,17.60
2023-03-24T19:01:04.650Z,17.58
2023-03-24T19:03:31.210Z,17.57
2023-03-24T19:06:00.962Z,17.53
2023-03-24T19:08:27.464Z,17.52
2023-03-24T19:10:54.513Z,17.56
2023-03-24T19:13:21.168Z,17.46
2023-03-24T19:15:48.352Z,17.37
2023-03-24T19:18:15.454Z,17.17
2023-03-24T19:20:42.313Z,17.19
2023-03-24T19:23:08.986Z,17.17
2023-03-24T19:25:35.543Z,17.08
2023-03-24T19:28:01.999Z,17.11
2023-03-24T19:30:29.434Z,17.04
2023-03-24T19:32:56.772Z,16.94
2023-03-24T19:35:23.681Z,16.80
2023-03-24T19:37:50.235Z,16.53
2023-03-24T19:40:16.725Z,16.34
2023-03-24T19:42:44.954Z,16.26
2023-03-24T19:45:12.677Z,16.21
2023-03-24T19:47:39.212Z,16.15
2023-03-24T19:50:07.409Z,16.08
2023-03-24T19:52:34.226Z,16.09
2023-03-24T19:55:00.894Z,16.03
2023-03-24T19:57:30.404Z,15.97
2023-03-24T19:59:57.337Z,15.92
2023-03-24T20:02:24.741Z,15.74
2023-03-24T20:04:52.042Z,15.65
2023-03-24T20:07:18.709Z,15.75
2023-03-24T20:09:45.359Z,15.64
2023-03-24T20:12:11.840Z,15.58
2023-03-24T20:14:38.320Z,15.52
2023-03-24T20:17:05.243Z,15.45
2023-03-24T20:19:31.828Z,15.52
2023-03-24T20:21:58.283Z,15.61
2023-03-24T20:24:24.761Z,15.59
2023-03-24T20:26:51.617Z,15.55
2023-03-24T20:29:18.254Z,15.58
2023-03-24T20:31:45.149Z,15.59
2023-03-24T20:34:11.670Z,15.59
2023-03-24T20:36:41.771Z,15.61
2023-03-24T20:39:08.223Z,15.61
2023-03-24T20:41:34.897Z,15.60
2023-03-24T20:44:01.364Z,15.62
2023-03-24T20:46:27.832Z,16.13
2023-03-24T20:48:54.333Z,16.00
2023-03-24T20:51:21.996Z,15.76
2023-03-24T20:53:49.855Z,15.74
2023-03-24T20:56:17.256Z,15.54
2023-03-24T20:58:44.693Z,15.56
2023-03-24T21:01:20.563Z,15.43
2023-03-24T21:03:51.440Z,15.35
2023-03-24T21:06:18.617Z,15.51
2023-03-24T21:08:45.526Z,15.63
2023-03-24T21:11:12.402Z,15.71
2023-03-24T21:13:39.504Z,15.54
2023-03-24T21:16:08.229Z,15.47
2023-03-24T21:18:35.930Z,15.51
2023-03-24T21:21:05.302Z,15.62
2023-03-24T21:23:34.278Z,15.35
2023-03-24T21:26:02.270Z,15.22
2023-03-24T21:28:30.834Z,15.17
2023-03-24T21:30:58.576Z,15.22
2023-03-24T21:33:25.454Z,15.33
2023-03-24T21:35:54.602Z,15.54
2023-03-24T21:38:21.174Z,15.59
2023-03-24T21:40:48.118Z,15.56
2023-03-24T21:43:14.817Z,15.63
2023-03-24T21:45:46.328Z,15.58
2023-03-24T21:48:14.066Z,15.47
2023-03-24T21:50:42.668Z,15.37
2023-03-24T21:53:15.361Z,15.17
2023-03-24T21:55:52.402Z,15.18
2023-03-24T21:58:19.321Z,15.14
2023-03-24T22:00:47.451Z,15.01
2023-03-24T22:03:14.089Z,15.01
2023-03-24T22:05:40.720Z,14.97
2023-03-24T22:08:07.679Z,15.15
2023-03-24T22:10:34.987Z,14.96
2023-03-24T22:13:02.366Z,14.93
2023-03-24T22:15:31.995Z,14.83
2023-03-24T22:17:59.539Z,14.79
2023-03-24T22:20:28.163Z,14.64
2023-03-24T22:22:54.648Z,14.68
2023-03-24T22:25:21.165Z,14.59
2023-03-24T22:27:52.695Z,14.49
2023-03-24T22:30:19.757Z,14.44
2023-03-24T22:32:46.261Z,14.03
2023-03-24T22:35:12.761Z,14.12
2023-03-24T22:37:39.224Z,13.96
2023-03-24T22:40:06.700Z,13.82
2023-03-24T22:42:33.241Z,13.74
2023-03-24T22:44:59.741Z,13.73
2023-03-24T22:47:27.400Z,14.18
2023-03-24T22:49:53.942Z,13.28
2023-03-24T22:52:20.694Z,13.35
2023-03-24T22:54:47.348Z,13.31
2023-03-24T22:57:13.816Z,13.40
2023-03-24T22:59:40.464Z,13.40
2023-03-24T23:02:10.065Z,12.77
2023-03-24T23:04:37.209Z,12.65
2023-03-24T23:07:06.194Z,12.53
2023-03-24T23:09:32.696Z,12.52
2023-03-24T23:11:59.199Z,12.23
2023-03-24T23:14:26.415Z,12.48
2023-03-24T23:16:54.280Z,12.50
2023-03-24T23:19:20.911Z,12.41
2023-03-24T23:21:47.347Z,12.42
2023-03-24T23:24:13.922Z,12.44
2023-03-24T23:26:40.360Z,12.85
2023-03-24T23:29:06.790Z,12.52
2023-03-24T23:31:33.444Z,12.52
2023-03-24T23:34:00.204Z,12.30
2023-03-24T23:36:28.335Z,12.45
2023-03-24T23:38:55.233Z,12.29
2023-03-24T23:41:22.315Z,12.53
2023-03-24T23:43:50.039Z,12.32
2023-03-24T23:46:17.103Z,12.70
2023-03-24T23:48:43.605Z,12.51
2023-03-24T23:51:10.462Z,12.22
2023-03-24T23:53:37.327Z,12.02
2023-03-24T23:56:08.891Z,12.27
2023-03-24T23:58:36.444Z,12.14
